createdAt,value
2023-01-15T00:02:59.539Z,5.57
2023-01-15T00:06:05.068Z,5.58
2023-01-15T00:09:13.215Z,5.59
2023-01-15T00:12:18.258Z,5.60
2023-01-15T00:15:24.441Z,5.59
2023-01-15T00:18:30.988Z,5.53
2023-01-15T00:21:39.093Z,5.46
2023-01-15T00:25:01.400Z,5.46
2023-01-15T00:28:10.980Z,5.42
2023-01-15T00:31:16.897Z,5.40
2023-01-15T00:34:23.457Z,5.35
2023-01-15T00:37:28.893Z,5.37
2023-01-15T00:40:34.365Z,5.39
2023-01-15T00:43:39.505Z,5.32
2023-01-15T00:46:45.088Z,5.32
2023-01-15T00:49:51.722Z,5.26
2023-01-15T00:52:56.973Z,5.22
2023-01-15T00:56:02.278Z,5.21
2023-01-15T00:59:07.620Z,5.16
2023-01-15T01:02:13.294Z,5.13
2023-01-15T01:05:21.280Z,5.11
2023-01-15T01:08:26.379Z,5.04
2023-01-15T01:11:34.411Z,5.01
2023-01-15T01:14:39.920Z,4.98
2023-01-15T01:17:45.117Z,4.96
2023-01-15T01:20:51.673Z,4.98
2023-01-15T01:23:56.963Z,5.02
2023-01-15T01:27:02.026Z,4.99
2023-01-15T01:30:08.492Z,4.96
2023-01-15T01:33:13.977Z,4.94
2023-01-15T01:36:20.993Z,4.93
2023-01-15T01:39:26.033Z,4.91
2023-01-15T01:42:32.160Z,4.85
2023-01-15T01:45:37.430Z,4.81
2023-01-15T01:48:42.610Z,4.79
2023-01-15T01:51:52.514Z,4.80
2023-01-15T01:54:58.170Z,4.78
2023-01-15T01:58:05.893Z,4.78
2023-01-15T02:01:13.340Z,4.77
2023-01-15T02:04:21.911Z,4.68
2023-01-15T02:07:33.223Z,4.64
2023-01-15T02:10:38.602Z,4.58
2023-01-15T02:13:49.909Z,4.58
2023-01-15T02:16:58.326Z,4.55
2023-01-15T02:20:25.818Z,4.55
2023-01-15T02:24:04.378Z,4.55
2023-01-15T02:27:16.355Z,4.50
2023-01-15T02:30:28.484Z,4.43
2023-01-15T02:33:40.097Z,4.42
2023-01-15T02:36:49.742Z,4.42
2023-01-15T02:40:03.003Z,4.41
2023-01-15T02:43:15.618Z,4.35
2023-01-15T02:46:24.059Z,4.35
2023-01-15T02:49:29.356Z,4.28
2023-01-15T02:52:42.700Z,4.21
2023-01-15T02:55:50.983Z,4.20
2023-01-15T02:59:05.954Z,4.28
2023-01-15T03:02:15.703Z,4.21
2023-01-15T03:05:24.238Z,4.21
2023-01-15T03:08:32.186Z,4.24
2023-01-15T03:11:40.507Z,4.23
2023-01-15T03:14:51.962Z,4.21
2023-01-15T03:17:57.307Z,4.27
2023-01-15T03:21:06.355Z,4.25
2023-01-15T03:24:12.850Z,4.26
2023-01-15T03:27:18.126Z,4.29
2023-01-15T03:30:29.235Z,4.24
2023-01-15T03:33:35.641Z,4.22
2023-01-15T03:36:41.783Z,4.19
2023-01-15T03:39:47.289Z,4.19
2023-01-15T03:43:15.990Z,4.18
2023-01-15T03:46:37.200Z,4.20
2023-01-15T03:49:53.358Z,4.19
2023-01-15T03:53:24.761Z,4.21
2023-01-15T03:56:35.602Z,4.27
2023-01-15T03:59:45.472Z,4.32
2023-01-15T04:02:53.640Z,4.39
2023-01-15T04:06:02.859Z,4.43
2023-01-15T04:09:10.659Z,4.42
2023-01-15T04:12:16.198Z,4.46
2023-01-15T04:15:25.404Z,4.55
2023-01-15T04:18:32.586Z,4.60
2023-01-15T04:21:37.504Z,4.60
2023-01-15T04:24:42.745Z,4.64
2023-01-15T04:27:47.851Z,4.64
2023-01-15T04:30:52.887Z,4.66
2023-01-15T04:33:59.541Z,4.69
2023-01-15T04:37:04.762Z,4.71
2023-01-15T04:40:34.331Z,4.75
2023-01-15T04:43:57.106Z,4.85
2023-01-15T04:47:02.191Z,4.92
2023-01-15T04:50:10.014Z,4.99
2023-01-15T04:53:15.200Z,5.09
2023-01-15T04:56:20.019Z,5.13
2023-01-15T04:59:27.288Z,5.19
2023-01-15T05:02:32.459Z,5.25
2023-01-15T05:05:38.867Z,5.24
2023-01-15T05:08:44.042Z,5.29
2023-01-15T05:11:50.894Z,5.31
2023-01-15T05:14:55.944Z,5.40
2023-01-15T05:18:01.785Z,5.36
2023-01-15T05:21:08.588Z,5.40
2023-01-15T05:24:17.484Z,5.44
2023-01-15T05:27:23.034Z,5.48
2023-01-15T05:30:28.375Z,5.49
2023-01-15T05:33:33.616Z,5.63
2023-01-15T05:36:40.263Z,5.60
2023-01-15T05:39:45.037Z,5.60
2023-01-15T05:42:50.199Z,5.67
2023-01-15T05:45:55.082Z,5.64
2023-01-15T05:49:02.603Z,5.65
2023-01-15T05:52:09.437Z,5.64
2023-01-15T05:55:14.314Z,5.62
2023-01-15T05:58:19.567Z,5.57
2023-01-15T06:01:24.806Z,5.64
2023-01-15T06:04:29.920Z,5.62
2023-01-15T06:07:36.480Z,5.59
2023-01-15T06:10:41.886Z,5.56
2023-01-15T06:13:47.177Z,5.54
2023-01-15T06:16:52.206Z,5.51
2023-01-15T06:19:57.060Z,5.43
2023-01-15T06:23:05.118Z,5.48
2023-01-15T06:26:12.755Z,5.49
2023-01-15T06:29:20.504Z,5.47
2023-01-15T06:32:26.380Z,5.48
2023-01-15T06:35:31.596Z,5.47
2023-01-15T06:38:38.410Z,5.47
2023-01-15T06:42:00.831Z,5.43
2023-01-15T06:45:32.169Z,5.42
2023-01-15T06:48:37.311Z,5.40
2023-01-15T06:51:42.370Z,5.41
2023-01-15T06:54:48.939Z,5.34
2023-01-15T06:57:54.046Z,5.37
2023-01-15T07:00:59.299Z,5.35
2023-01-15T07:04:04.558Z,5.39
2023-01-15T07:07:09.833Z,5.32
2023-01-15T07:10:16.410Z,5.27
2023-01-15T07:13:21.865Z,5.22
2023-01-15T07:16:30.573Z,5.11
2023-01-15T07:19:35.402Z,5.11
2023-01-15T07:22:42.953Z,5.17
2023-01-15T07:25:49.708Z,5.19
2023-01-15T07:28:54.961Z,5.20
2023-01-15T07:32:00.332Z,5.23
2023-01-15T07:35:05.383Z,5.22
2023-01-15T07:38:11.461Z,5.18
2023-01-15T07:41:35.883Z,5.24
2023-01-15T07:44:58.513Z,5.18
2023-01-15T07:48:21.675Z,5.21
2023-01-15T07:51:26.622Z,5.16
2023-01-15T07:54:31.781Z,5.03
2023-01-15T07:57:38.885Z,5.13
2023-01-15T08:00:44.054Z,5.19
2023-01-15T08:03:49.038Z,5.18
2023-01-15T08:06:54.261Z,5.18
2023-01-15T08:09:59.343Z,5.21
2023-01-15T08:13:23.733Z,5.20
2023-01-15T08:16:29.011Z,5.19
2023-01-15T08:19:34.675Z,5.20
2023-01-15T08:22:40.268Z,4.99
2023-01-15T08:25:45.401Z,4.96
2023-01-15T08:28:51.947Z,4.86
2023-01-15T08:32:03.257Z,4.85
2023-01-15T08:35:09.545Z,4.77
2023-01-15T08:38:15.017Z,4.79
2023-01-15T08:41:20.303Z,4.75
2023-01-15T08:44:27.615Z,4.72
2023-01-15T08:47:33.522Z,4.75
2023-01-15T08:50:38.416Z,4.71
2023-01-15T08:53:43.581Z,4.75
2023-01-15T08:56:49.984Z,4.65
2023-01-15T08:59:56.656Z,4.66
2023-01-15T09:03:01.760Z,4.66
2023-01-15T09:06:11.116Z,4.74
2023-01-15T09:09:18.884Z,4.69
2023-01-15T09:12:26.502Z,4.64
2023-01-15T09:15:34.448Z,4.58
2023-01-15T09:18:41.806Z,4.60
2023-01-15T09:21:47.206Z,4.53
2023-01-15T09:24:52.312Z,4.55
2023-01-15T09:27:58.093Z,4.62
2023-01-15T09:31:04.918Z,4.54
2023-01-15T09:34:12.029Z,4.51
2023-01-15T09:37:17.016Z,4.44
2023-01-15T09:40:38.473Z,4.41
2023-01-15T09:43:51.501Z,4.42
2023-01-15T09:47:05.650Z,4.37
2023-01-15T09:50:22.077Z,4.34
2023-01-15T09:53:39.297Z,4.28
2023-01-15T09:56:44.595Z,4.32
2023-01-15T09:59:51.267Z,4.38
2023-01-15T10:03:01.555Z,4.41
2023-01-15T10:06:14.306Z,4.36
2023-01-15T10:09:23.127Z,4.37
2023-01-15T10:12:40.310Z,4.51
2023-01-15T10:15:47.873Z,4.50
2023-01-15T10:18:56.184Z,4.38
2023-01-15T10:22:06.424Z,4.55
2023-01-15T10:25:16.581Z,4.51
2023-01-15T10:28:26.661Z,4.53
2023-01-15T10:31:53.275Z,4.58
2023-01-15T10:35:22.051Z,4.60
2023-01-15T10:38:34.830Z,4.69
2023-01-15T10:41:52.972Z,4.72
2023-01-15T10:45:02.946Z,4.64
2023-01-15T10:48:13.660Z,4.74
2023-01-15T10:51:21.555Z,4.92
2023-01-15T10:54:31.312Z,4.98
2023-01-15T10:57:44.024Z,5.07
2023-01-15T11:00:53.902Z,5.13
2023-01-15T11:03:59.078Z,5.17
2023-01-15T11:07:05.769Z,5.17
2023-01-15T11:10:16.922Z,5.19
2023-01-15T11:13:43.079Z,5.26
2023-01-15T11:17:05.700Z,5.29
2023-01-15T11:20:23.389Z,5.34
2023-01-15T11:23:29.041Z,5.37
2023-01-15T11:26:36.308Z,5.36
2023-01-15T11:29:41.437Z,5.42
2023-01-15T11:32:57.216Z,5.44
2023-01-15T11:36:03.583Z,5.38
2023-01-15T11:39:21.612Z,5.45
2023-01-15T11:42:45.624Z,5.48
2023-01-15T11:46:09.715Z,5.53
2023-01-15T11:49:36.351Z,5.52
2023-01-15T11:52:44.669Z,5.57
2023-01-15T11:55:54.669Z,5.35
2023-01-15T11:59:03.899Z,5.35
2023-01-15T12:02:17.422Z,5.33
2023-01-15T12:05:24.102Z,5.21
2023-01-15T12:08:39.483Z,5.22
2023-01-15T12:11:55.985Z,5.15
2023-01-15T12:15:27.215Z,5.10
2023-01-15T12:18:53.795Z,5.12
2023-01-15T12:22:15.152Z,5.16
2023-01-15T12:25:38.185Z,5.18
2023-01-15T12:28:48.737Z,5.17
2023-01-15T12:31:59.049Z,5.23
2023-01-15T12:35:07.644Z,5.32
2023-01-15T12:38:17.883Z,5.34
2023-01-15T12:41:47.521Z,5.23
2023-01-15T12:45:04.935Z,5.19
2023-01-15T12:48:22.368Z,5.27
2023-01-15T12:51:33.559Z,5.34
2023-01-15T12:54:43.084Z,5.39
2023-01-15T12:57:50.044Z,5.38
2023-01-15T13:01:03.171Z,5.39
2023-01-15T13:04:28.489Z,5.44
2023-01-15T13:07:38.988Z,5.45
2023-01-15T13:10:50.294Z,5.42
2023-01-15T13:14:06.964Z,5.50
2023-01-15T13:17:24.630Z,5.42
2023-01-15T13:20:42.730Z,5.39
2023-01-15T13:24:04.683Z,5.37
2023-01-15T13:27:25.649Z,5.34
2023-01-15T13:30:47.806Z,5.40
2023-01-15T13:33:54.992Z,5.43
2023-01-15T13:37:06.239Z,5.46
2023-01-15T13:40:18.203Z,5.45
2023-01-15T13:43:31.062Z,5.50
2023-01-15T13:46:36.364Z,5.55
2023-01-15T13:49:43.380Z,5.49
2023-01-15T13:52:49.915Z,5.44
2023-01-15T13:55:56.724Z,5.44
2023-01-15T13:59:02.864Z,5.42
2023-01-15T14:02:25.087Z,5.34
2023-01-15T14:05:33.029Z,5.32
2023-01-15T14:08:44.293Z,5.30
2023-01-15T14:12:02.740Z,5.31
2023-01-15T14:15:28.251Z,5.27
2023-01-15T14:18:45.985Z,5.27
2023-01-15T14:21:56.859Z,5.21
2023-01-15T14:25:18.197Z,5.20
2023-01-15T14:28:36.471Z,5.15
2023-01-15T14:31:51.082Z,5.15
2023-01-15T14:34:58.490Z,5.18
2023-01-15T14:38:06.944Z,5.14
2023-01-15T14:41:15.337Z,5.02
2023-01-15T14:44:28.556Z,4.91
2023-01-15T14:47:37.577Z,4.85
2023-01-15T14:50:44.131Z,4.80
2023-01-15T14:53:51.565Z,4.74
2023-01-15T14:56:59.613Z,4.65
2023-01-15T15:00:06.367Z,4.57
2023-01-15T15:03:18.174Z,4.51
2023-01-15T15:06:23.827Z,4.41
2023-01-15T15:09:36.342Z,4.48
2023-01-15T15:12:44.994Z,4.45
2023-01-15T15:15:53.888Z,4.37
2023-01-15T15:19:02.336Z,4.34
2023-01-15T15:22:12.227Z,4.41
2023-01-15T15:25:22.950Z,4.37
2023-01-15T15:28:30.337Z,4.30
2023-01-15T15:31:37.636Z,4.30
2023-01-15T15:34:47.056Z,4.24
2023-01-15T15:37:52.683Z,4.31
2023-01-15T15:41:00.200Z,4.27
2023-01-15T15:44:24.564Z,4.15
2023-01-15T15:47:47.801Z,4.17
2023-01-15T15:50:52.797Z,4.17
2023-01-15T15:54:12.709Z,4.16
2023-01-15T15:57:19.947Z,4.22
2023-01-15T16:00:31.439Z,4.16
2023-01-15T16:03:36.497Z,4.08
2023-01-15T16:06:41.911Z,4.09
2023-01-15T16:09:51.082Z,4.12
2023-01-15T16:12:58.113Z,4.03
2023-01-15T16:16:08.260Z,4.10
2023-01-15T16:19:31.823Z,4.08
2023-01-15T16:22:56.253Z,4.19
2023-01-15T16:26:04.986Z,4.08
2023-01-15T16:29:19.645Z,4.07
2023-01-15T16:32:29.393Z,4.08
2023-01-15T16:35:37.311Z,4.08
2023-01-15T16:38:44.602Z,3.98
2023-01-15T16:41:53.688Z,4.13
2023-01-15T16:45:01.422Z,4.09
2023-01-15T16:48:29.943Z,4.11
2023-01-15T16:51:36.310Z,4.12
2023-01-15T16:54:47.016Z,4.09
2023-01-15T16:58:18.867Z,4.12
2023-01-15T17:01:38.327Z,4.10
2023-01-15T17:04:46.722Z,4.06
2023-01-15T17:07:54.281Z,4.15
2023-01-15T17:11:03.953Z,4.12
2023-01-15T17:14:11.742Z,4.10
2023-01-15T17:17:18.923Z,4.14
2023-01-15T17:20:28.003Z,4.06
2023-01-15T17:23:38.512Z,4.07
2023-01-15T17:26:43.286Z,4.04
2023-01-15T17:29:48.499Z,3.97
2023-01-15T17:32:53.659Z,3.94
2023-01-15T17:36:01.460Z,3.96
2023-01-15T17:39:06.388Z,3.91
2023-01-15T17:42:16.370Z,3.97
2023-01-15T17:45:23.399Z,4.04
2023-01-15T17:48:29.350Z,4.08
2023-01-15T17:51:35.883Z,4.17
2023-01-15T17:54:58.772Z,4.07
2023-01-15T17:58:21.636Z,4.05
2023-01-15T18:01:45.372Z,4.06
2023-01-15T18:05:11.491Z,4.17
2023-01-15T18:08:20.259Z,4.18
2023-01-15T18:11:25.727Z,4.11
2023-01-15T18:14:31.332Z,4.12
2023-01-15T18:17:36.714Z,4.11
2023-01-15T18:20:41.918Z,3.99
2023-01-15T18:23:48.473Z,4.14
2023-01-15T18:26:53.661Z,4.18
2023-01-15T18:29:59.336Z,4.11
2023-01-15T18:33:04.228Z,4.26
2023-01-15T18:36:11.571Z,4.20
2023-01-15T18:39:18.154Z,4.17
2023-01-15T18:42:41.132Z,4.24
2023-01-15T18:46:05.432Z,4.23
2023-01-15T18:49:12.150Z,4.27
2023-01-15T18:52:37.256Z,4.20
2023-01-15T18:55:43.940Z,4.29
2023-01-15T18:58:49.349Z,4.23
2023-01-15T19:01:56.454Z,4.33
2023-01-15T19:05:01.774Z,4.25
2023-01-15T19:08:08.153Z,4.48
2023-01-15T19:11:15.871Z,4.32
2023-01-15T19:14:39.138Z,4.55
2023-01-15T19:18:04.500Z,4.47
2023-01-15T19:21:12.908Z,4.30
2023-01-15T19:24:20.279Z,4.41
2023-01-15T19:27:26.850Z,4.57
2023-01-15T19:30:33.672Z,4.51
2023-01-15T19:33:38.773Z,4.58
2023-01-15T19:36:44.696Z,4.54
2023-01-15T19:39:49.786Z,4.57
2023-01-15T19:43:14.291Z,4.59
2023-01-15T19:46:37.559Z,4.70
2023-01-15T19:50:00.512Z,4.72
2023-01-15T19:53:06.608Z,4.82
2023-01-15T19:56:15.568Z,4.84
2023-01-15T19:59:21.929Z,4.86
2023-01-15T20:02:27.695Z,4.82
2023-01-15T20:05:33.750Z,4.87
2023-01-15T20:08:39.029Z,4.75
2023-01-15T20:11:59.819Z,4.71
2023-01-15T20:15:07.398Z,4.68
2023-01-15T20:18:14.843Z,4.59
2023-01-15T20:21:20.508Z,4.62
2023-01-15T20:24:25.820Z,4.52
2023-01-15T20:27:34.971Z,4.63
2023-01-15T20:30:42.749Z,4.62
2023-01-15T20:33:48.201Z,4.63
2023-01-15T20:36:53.340Z,4.57
2023-01-15T20:39:58.480Z,4.59
2023-01-15T20:43:21.434Z,4.55
2023-01-15T20:46:27.651Z,4.52
2023-01-15T20:49:32.667Z,4.52
2023-01-15T20:52:38.032Z,4.52
2023-01-15T20:55:55.829Z,4.53
2023-01-15T20:59:02.294Z,4.48
2023-01-15T21:02:11.460Z,4.48
2023-01-15T21:05:16.725Z,4.47
2023-01-15T21:08:22.352Z,4.41
2023-01-15T21:11:27.532Z,4.46
2023-01-15T21:14:32.682Z,4.42
2023-01-15T21:17:44.940Z,4.41
2023-01-15T21:20:50.256Z,4.43
2023-01-15T21:23:55.776Z,4.44
2023-01-15T21:27:00.621Z,4.43
2023-01-15T21:30:06.573Z,4.48
2023-01-15T21:33:13.915Z,4.55
2023-01-15T21:36:21.036Z,4.59
2023-01-15T21:39:27.622Z,4.62
2023-01-15T21:42:50.338Z,4.65
2023-01-15T21:46:04.866Z,4.68
2023-01-15T21:49:11.677Z,4.71
2023-01-15T21:52:19.424Z,4.72
2023-01-15T21:55:24.260Z,4.70
2023-01-15T21:58:29.538Z,4.72
2023-01-15T22:01:34.707Z,4.66
2023-01-15T22:04:41.746Z,4.67
2023-01-15T22:07:47.270Z,4.66
2023-01-15T22:10:53.241Z,4.72
2023-01-15T22:13:58.377Z,4.70
2023-01-15T22:17:05.073Z,4.66
2023-01-15T22:20:14.207Z,4.68
2023-01-15T22:23:19.387Z,4.65
2023-01-15T22:26:26.151Z,4.65
2023-01-15T22:29:32.882Z,4.68
2023-01-15T22:32:38.143Z,4.69
2023-01-15T22:35:44.917Z,4.69
2023-01-15T22:38:52.849Z,4.69
2023-01-15T22:42:16.123Z,4.66
2023-01-15T22:45:21.196Z,4.73
2023-01-15T22:48:26.786Z,4.69
2023-01-15T22:51:33.355Z,4.65
2023-01-15T22:54:38.704Z,4.64
2023-01-15T22:57:43.846Z,4.62
2023-01-15T23:00:49.129Z,4.67
2023-01-15T23:03:54.854Z,4.71
2023-01-15T23:07:01.186Z,4.67
2023-01-15T23:10:08.528Z,4.70
2023-01-15T23:13:14.091Z,4.80
2023-01-15T23:16:19.494Z,4.86
2023-01-15T23:19:26.737Z,4.84
2023-01-15T23:22:33.122Z,4.86
2023-01-15T23:25:38.222Z,4.83
2023-01-15T23:28:43.506Z,4.83
2023-01-15T23:31:48.496Z,4.90
2023-01-15T23:34:53.513Z,4.88
2023-01-15T23:38:00.342Z,4.88
2023-01-15T23:41:11.082Z,4.87
2023-01-15T23:44:35.656Z,4.88
2023-01-15T23:47:40.726Z,4.95
2023-01-15T23:50:45.845Z,4.92
2023-01-15T23:53:52.703Z,4.91
2023-01-15T23:56:57.784Z,4.95
